createdAt,value
2019-02-03T00:00:44.404Z,985.21
2019-02-03T00:01:44.400Z,985.25
2019-02-03T00:02:44.434Z,985.26
2019-02-03T00:03:44.478Z,985.30
2019-02-03T00:04:44.509Z,985.27
2019-02-03T00:05:44.546Z,985.32
2019-02-03T00:06:44.594Z,985.34
2019-02-03T00:07:44.705Z,985.33
2019-02-03T00:08:44.653Z,985.38
2019-02-03T00:09:44.693Z,985.38
2019-02-03T00:10:44.767Z,985.43
2019-02-03T00:11:44.767Z,985.44
2019-02-03T00:12:44.801Z,985.49
2019-02-03T00:13:44.850Z,985.48
2019-02-03T00:14:44.884Z,985.52
2019-02-03T00:15:44.910Z,985.52
2019-02-03T00:16:44.947Z,985.52
2019-02-03T00:17:44.985Z,985.55
2019-02-03T00:18:45.214Z,985.51
2019-02-03T00:19:45.061Z,985.52
2019-02-03T00:20:45.374Z,985.57
2019-02-03T00:21:45.310Z,985.62
2019-02-03T00:22:45.175Z,985.58
2019-02-03T00:23:45.210Z,985.65
2019-02-03T00:24:45.306Z,985.68
2019-02-03T00:25:45.281Z,985.68
2019-02-03T00:26:45.314Z,985.70
2019-02-03T00:27:45.350Z,985.67
2019-02-03T00:28:45.394Z,985.70
2019-02-03T00:29:45.432Z,985.75
2019-02-03T00:30:45.464Z,985.74
2019-02-03T00:31:45.495Z,985.79
2019-02-03T00:32:45.533Z,985.81
2019-02-03T00:33:45.574Z,985.85
2019-02-03T00:34:45.607Z,985.87
2019-02-03T00:35:45.643Z,985.94
2019-02-03T00:36:45.680Z,985.92
2019-02-03T00:37:45.721Z,985.91
2019-02-03T00:38:45.760Z,985.96
2019-02-03T00:39:45.839Z,985.98
2019-02-03T00:40:45.856Z,986.02
2019-02-03T00:41:45.870Z,985.99
2019-02-03T00:42:45.908Z,986.04
2019-02-03T00:43:45.944Z,986.02
2019-02-03T00:44:45.976Z,986.06
2019-02-03T00:45:46.010Z,986.10
2019-02-03T00:46:46.046Z,986.09
2019-02-03T00:47:46.082Z,986.05
2019-02-03T00:48:46.123Z,986.08
2019-02-03T00:49:46.155Z,986.08
2019-02-03T00:50:46.245Z,986.06
2019-02-03T00:51:46.232Z,986.08
2019-02-03T00:52:46.268Z,986.06
2019-02-03T00:53:46.303Z,986.08
2019-02-03T00:54:46.340Z,986.09
2019-02-03T00:55:46.376Z,986.05
2019-02-03T00:56:46.413Z,986.05
2019-02-03T00:57:46.451Z,986.08
2019-02-03T00:58:46.496Z,986.10
2019-02-03T00:59:46.530Z,986.13
2019-02-03T01:00:46.558Z,986.13
2019-02-03T01:01:46.611Z,986.14
2019-02-03T01:02:46.630Z,986.14
2019-02-03T01:03:46.675Z,986.13
2019-02-03T01:04:46.785Z,986.14
2019-02-03T01:05:46.740Z,986.17
2019-02-03T01:06:46.777Z,986.08
2019-02-03T01:07:46.820Z,986.12
2019-02-03T01:08:46.854Z,986.10
2019-02-03T01:09:46.891Z,986.17
2019-02-03T01:10:47.024Z,986.15
2019-02-03T01:11:46.976Z,986.16
2019-02-03T01:12:46.997Z,986.18
2019-02-03T01:13:47.033Z,986.22
2019-02-03T01:14:47.072Z,986.19
2019-02-03T01:15:47.114Z,986.21
2019-02-03T01:16:47.146Z,986.26
2019-02-03T01:17:47.183Z,986.22
2019-02-03T01:18:47.217Z,986.26
2019-02-03T01:19:47.255Z,986.29
2019-02-03T01:20:47.290Z,986.29
2019-02-03T01:21:47.325Z,986.40
2019-02-03T01:22:47.363Z,986.42
2019-02-03T01:23:47.524Z,986.44
2019-02-03T01:24:47.436Z,986.49
2019-02-03T01:25:47.493Z,986.56
2019-02-03T01:26:47.519Z,986.52
2019-02-03T01:27:47.545Z,986.65
2019-02-03T01:28:47.582Z,986.62
2019-02-03T01:29:47.620Z,986.60
2019-02-03T01:30:47.659Z,986.64
2019-02-03T01:31:49.203Z,986.66
2019-02-03T01:32:47.731Z,986.64
2019-02-03T01:33:47.764Z,986.70
2019-02-03T01:34:47.799Z,986.68
2019-02-03T01:35:47.836Z,986.72
2019-02-03T01:36:47.875Z,986.69
2019-02-03T01:37:47.908Z,986.78
2019-02-03T01:38:47.959Z,986.75
2019-02-03T01:39:48.080Z,986.74
2019-02-03T01:40:48.020Z,986.77
2019-02-03T01:41:48.054Z,986.81
2019-02-03T01:42:48.096Z,986.82
2019-02-03T01:43:48.134Z,986.84
2019-02-03T01:44:48.164Z,986.85
2019-02-03T01:45:48.202Z,986.83
2019-02-03T01:46:48.602Z,986.83
2019-02-03T01:47:48.278Z,986.82
2019-02-03T01:48:48.760Z,986.85
2019-02-03T01:49:48.447Z,986.83
2019-02-03T01:50:48.389Z,986.88
2019-02-03T01:51:48.417Z,986.83
2019-02-03T01:52:48.456Z,986.88
2019-02-03T01:53:48.525Z,986.88
2019-02-03T01:54:48.528Z,986.86
2019-02-03T01:55:48.566Z,986.90
2019-02-03T01:56:48.922Z,986.89
2019-02-03T01:57:48.637Z,986.83
2019-02-03T01:58:48.675Z,986.88
2019-02-03T01:59:48.711Z,986.85
2019-02-03T02:00:48.746Z,986.81
2019-02-03T02:01:48.787Z,986.86
2019-02-03T02:02:48.819Z,986.80
2019-02-03T02:03:48.858Z,986.79
2019-02-03T02:04:48.902Z,986.77
2019-02-03T02:05:48.926Z,986.79
2019-02-03T02:06:48.971Z,986.74
2019-02-03T02:07:51.791Z,986.76
2019-02-03T02:08:49.043Z,986.78
2019-02-03T02:09:49.071Z,986.75
2019-02-03T02:10:49.131Z,986.76
2019-02-03T02:11:49.155Z,986.80
2019-02-03T02:12:49.193Z,986.84
2019-02-03T02:13:49.216Z,986.81
2019-02-03T02:14:49.370Z,986.83
2019-02-03T02:15:49.290Z,986.80
2019-02-03T02:16:49.325Z,986.82
2019-02-03T02:17:49.368Z,986.84
2019-02-03T02:18:49.398Z,986.75
2019-02-03T02:19:49.432Z,986.71
2019-02-03T02:20:49.470Z,986.67
2019-02-03T02:21:49.508Z,986.54
2019-02-03T02:22:49.551Z,986.55
2019-02-03T02:23:49.580Z,986.49
2019-02-03T02:24:49.617Z,986.42
2019-02-03T02:25:49.654Z,986.37
2019-02-03T02:26:49.687Z,986.37
2019-02-03T02:27:49.898Z,986.38
2019-02-03T02:28:49.768Z,986.46
2019-02-03T02:29:50.200Z,986.51
2019-02-03T02:30:49.834Z,986.58
2019-02-03T02:31:49.911Z,986.56
2019-02-03T02:32:50.062Z,986.65
2019-02-03T02:33:49.945Z,986.67
2019-02-03T02:34:49.982Z,986.78
2019-02-03T02:35:50.013Z,986.89
2019-02-03T02:36:50.052Z,986.98
2019-02-03T02:37:50.085Z,986.96
2019-02-03T02:38:50.124Z,987.04
2019-02-03T02:39:50.159Z,987.10
2019-02-03T02:40:50.190Z,987.18
2019-02-03T02:41:50.230Z,987.25
2019-02-03T02:42:50.267Z,987.33
2019-02-03T02:43:50.377Z,987.33
2019-02-03T02:44:50.520Z,987.41
2019-02-03T02:45:50.394Z,987.42
2019-02-03T02:46:50.418Z,987.47
2019-02-03T02:47:50.452Z,987.41
2019-02-03T02:48:50.484Z,987.42
2019-02-03T02:49:50.518Z,987.52
2019-02-03T02:50:50.554Z,987.56
2019-02-03T02:51:50.597Z,987.59
2019-02-03T02:52:50.627Z,987.65
2019-02-03T02:53:50.664Z,987.60
2019-02-03T02:54:50.701Z,987.64
2019-02-03T02:55:50.733Z,987.68
2019-02-03T02:56:50.770Z,987.69
2019-02-03T02:57:50.825Z,987.72
2019-02-03T02:58:50.854Z,987.74
2019-02-03T02:59:50.878Z,987.76
2019-02-03T03:00:50.918Z,987.80
2019-02-03T03:01:50.962Z,987.79
2019-02-03T03:02:51.021Z,987.79
2019-02-03T03:03:51.024Z,987.80
2019-02-03T03:04:51.061Z,987.79
2019-02-03T03:05:51.098Z,987.80
2019-02-03T03:06:51.139Z,987.81
2019-02-03T03:07:51.166Z,987.87
2019-02-03T03:08:51.205Z,987.87
2019-02-03T03:09:51.241Z,987.87
2019-02-03T03:10:51.287Z,987.92
2019-02-03T03:11:51.313Z,987.94
2019-02-03T03:12:51.351Z,987.96
2019-02-03T03:13:51.384Z,988.02
2019-02-03T03:14:51.424Z,988.04
2019-02-03T03:15:51.469Z,988.05
2019-02-03T03:16:51.513Z,988.05
2019-02-03T03:17:51.580Z,988.07
2019-02-03T03:18:51.566Z,988.07
2019-02-03T03:19:51.601Z,988.09
2019-02-03T03:20:51.646Z,988.05
2019-02-03T03:21:51.683Z,988.03
2019-02-03T03:22:51.711Z,988.08
2019-02-03T03:23:51.746Z,988.05
2019-02-03T03:24:51.789Z,988.04
2019-02-03T03:25:51.818Z,988.03
2019-02-03T03:26:51.857Z,988.09
2019-02-03T03:27:51.899Z,988.10
2019-02-03T03:28:51.928Z,988.13
2019-02-03T03:29:51.966Z,988.16
2019-02-03T03:30:52.008Z,988.19
2019-02-03T03:31:52.045Z,988.11
2019-02-03T03:32:52.072Z,988.13
2019-02-03T03:33:52.109Z,988.23
2019-02-03T03:34:52.145Z,988.21
2019-02-03T03:35:52.181Z,988.25
2019-02-03T03:36:52.218Z,988.27
2019-02-03T03:37:52.296Z,988.27
2019-02-03T03:38:52.292Z,988.28
2019-02-03T03:39:52.326Z,988.24
2019-02-03T03:40:52.365Z,988.30
2019-02-03T03:41:52.398Z,988.24
2019-02-03T03:42:52.438Z,988.29
2019-02-03T03:43:52.472Z,988.34
2019-02-03T03:44:52.508Z,988.31
2019-02-03T03:45:52.543Z,988.33
2019-02-03T03:46:52.576Z,988.38
2019-02-03T03:47:52.615Z,988.39
2019-02-03T03:48:52.650Z,988.38
2019-02-03T03:49:52.687Z,988.41
2019-02-03T03:50:52.724Z,988.43
2019-02-03T03:51:52.758Z,988.40
2019-02-03T03:52:52.801Z,988.41
2019-02-03T03:53:52.839Z,988.42
2019-02-03T03:54:52.867Z,988.47
2019-02-03T03:55:52.902Z,988.45
2019-02-03T03:56:52.941Z,988.49
2019-02-03T03:57:52.993Z,988.50
2019-02-03T03:58:53.012Z,988.45
2019-02-03T03:59:53.048Z,988.40
2019-02-03T04:00:53.133Z,988.37
2019-02-03T04:01:53.120Z,988.38
2019-02-03T04:02:53.164Z,988.39
2019-02-03T04:03:53.190Z,988.42
2019-02-03T04:04:53.226Z,988.44
2019-02-03T04:05:53.266Z,988.43
2019-02-03T04:06:53.301Z,988.46
2019-02-03T04:07:53.435Z,988.47
2019-02-03T04:08:53.379Z,988.47
2019-02-03T04:09:53.407Z,988.46
2019-02-03T04:10:53.444Z,988.46
2019-02-03T04:11:53.479Z,988.46
2019-02-03T04:12:53.515Z,988.57
2019-02-03T04:13:53.552Z,988.52
2019-02-03T04:14:53.590Z,988.53
2019-02-03T04:15:53.623Z,988.53
2019-02-03T04:16:53.659Z,988.55
2019-02-03T04:17:53.693Z,988.55
2019-02-03T04:18:53.737Z,988.55
2019-02-03T04:19:53.767Z,988.56
2019-02-03T04:20:53.803Z,988.60
2019-02-03T04:21:53.840Z,988.64
2019-02-03T04:22:53.875Z,988.66
2019-02-03T04:23:53.910Z,988.64
2019-02-03T04:24:53.946Z,988.67
2019-02-03T04:25:53.984Z,988.66
2019-02-03T04:26:54.019Z,988.68
2019-02-03T04:27:54.053Z,988.73
2019-02-03T04:28:54.090Z,988.71
2019-02-03T04:29:54.125Z,988.79
2019-02-03T04:30:54.161Z,988.77
2019-02-03T04:31:54.197Z,988.79
2019-02-03T04:32:54.241Z,988.82
2019-02-03T04:33:54.269Z,988.82
2019-02-03T04:34:54.305Z,988.86
2019-02-03T04:35:54.341Z,988.88
2019-02-03T04:36:54.389Z,988.92
2019-02-03T04:37:54.414Z,988.91
2019-02-03T04:38:58.167Z,988.91
2019-02-03T04:39:54.494Z,988.91
2019-02-03T04:40:54.530Z,988.96
2019-02-03T04:41:54.557Z,988.98
2019-02-03T04:42:54.594Z,989.00
2019-02-03T04:43:54.639Z,989.03
2019-02-03T04:44:54.669Z,989.02
2019-02-03T04:45:54.705Z,989.08
2019-02-03T04:46:54.739Z,989.08
2019-02-03T04:47:54.774Z,989.06
2019-02-03T04:48:54.817Z,989.04
2019-02-03T04:49:54.854Z,989.09
2019-02-03T04:50:54.883Z,989.02
2019-02-03T04:51:54.918Z,989.02
2019-02-03T04:52:54.954Z,989.07
2019-02-03T04:53:54.990Z,989.11
2019-02-03T04:54:55.025Z,989.10
2019-02-03T04:55:55.060Z,989.15
2019-02-03T04:56:55.096Z,989.16
2019-02-03T04:57:55.137Z,989.17
2019-02-03T04:58:55.225Z,989.16
2019-02-03T04:59:55.204Z,989.21
2019-02-03T05:00:55.241Z,989.15
2019-02-03T05:01:55.293Z,989.16
2019-02-03T05:02:55.314Z,989.22
2019-02-03T05:03:55.354Z,989.20
2019-02-03T05:04:55.385Z,989.05
2019-02-03T05:05:55.421Z,989.04
2019-02-03T05:06:55.467Z,989.06
2019-02-03T05:07:55.502Z,989.16
2019-02-03T05:08:55.527Z,989.13
2019-02-03T05:09:55.565Z,989.16
2019-02-03T05:10:55.600Z,989.19
2019-02-03T05:11:55.634Z,989.17
2019-02-03T05:12:55.671Z,989.10
2019-02-03T05:13:55.708Z,989.12
2019-02-03T05:14:55.842Z,989.14
2019-02-03T05:15:55.788Z,989.15
2019-02-03T05:16:55.814Z,989.14
2019-02-03T05:17:55.858Z,989.11
2019-02-03T05:18:55.888Z,989.18
2019-02-03T05:19:55.921Z,989.14
2019-02-03T05:20:55.961Z,989.14
2019-02-03T05:21:55.995Z,989.15
2019-02-03T05:22:56.028Z,989.15
2019-02-03T05:23:56.063Z,989.17
2019-02-03T05:24:56.106Z,989.26
2019-02-03T05:25:56.133Z,989.24
2019-02-03T05:26:56.170Z,989.23
2019-02-03T05:27:56.205Z,989.21
2019-02-03T05:28:56.241Z,989.20
2019-02-03T05:29:56.278Z,989.23
2019-02-03T05:30:56.312Z,989.23
2019-02-03T05:31:56.347Z,989.25
2019-02-03T05:32:56.383Z,989.29
2019-02-03T05:33:56.421Z,989.29
2019-02-03T05:34:56.470Z,989.29
2019-02-03T05:35:56.492Z,989.28
2019-02-03T05:36:56.526Z,989.30
2019-02-03T05:37:56.561Z,989.32
2019-02-03T05:38:56.598Z,989.33
2019-02-03T05:39:56.638Z,989.34
2019-02-03T05:40:56.668Z,989.35
2019-02-03T05:41:56.710Z,989.35
2019-02-03T05:42:56.741Z,989.34
2019-02-03T05:43:56.776Z,989.41
2019-02-03T05:44:56.820Z,989.39
2019-02-03T05:45:56.853Z,989.43
2019-02-03T05:46:56.881Z,989.45
2019-02-03T05:47:57.020Z,989.40
2019-02-03T05:48:56.952Z,989.44
2019-02-03T05:49:56.988Z,989.51
2019-02-03T05:50:57.022Z,989.49
2019-02-03T05:51:57.171Z,989.51
2019-02-03T05:52:57.093Z,989.52
2019-02-03T05:53:57.131Z,989.54
2019-02-03T05:54:57.166Z,989.60
2019-02-03T05:55:57.201Z,989.61
2019-02-03T05:56:57.242Z,989.63
2019-02-03T05:57:57.270Z,989.67
2019-02-03T05:58:57.307Z,989.70
2019-02-03T05:59:57.342Z,989.75
2019-02-03T06:00:57.379Z,989.80
2019-02-03T06:01:57.412Z,989.81
2019-02-03T06:02:57.449Z,989.81
2019-02-03T06:03:57.482Z,989.83
2019-02-03T06:04:57.518Z,989.91
2019-02-03T06:05:57.554Z,989.94
2019-02-03T06:06:57.591Z,989.92
2019-02-03T06:07:57.638Z,989.94
2019-02-03T06:08:57.661Z,989.96
2019-02-03T06:09:57.699Z,989.98
2019-02-03T06:10:57.732Z,990.02
2019-02-03T06:11:57.770Z,989.99
2019-02-03T06:12:57.803Z,989.99
2019-02-03T06:13:57.870Z,989.96
2019-02-03T06:14:57.875Z,990.03
2019-02-03T06:15:57.916Z,990.01
2019-02-03T06:16:57.955Z,990.01
2019-02-03T06:17:57.985Z,990.06
2019-02-03T06:18:58.018Z,990.08
2019-02-03T06:19:58.051Z,990.08
2019-02-03T06:20:58.096Z,990.12
2019-02-03T06:21:58.123Z,990.13
2019-02-03T06:22:58.167Z,990.18
2019-02-03T06:23:58.193Z,990.19
2019-02-03T06:24:58.234Z,990.20
2019-02-03T06:25:58.269Z,990.18
2019-02-03T06:26:58.311Z,990.29
2019-02-03T06:27:58.336Z,990.26
2019-02-03T06:28:58.372Z,990.28
2019-02-03T06:29:58.409Z,990.32
2019-02-03T06:30:58.502Z,990.26
2019-02-03T06:31:58.481Z,990.28
2019-02-03T06:32:58.526Z,990.31
2019-02-03T06:33:58.557Z,990.30
2019-02-03T06:34:58.585Z,990.30
2019-02-03T06:35:58.624Z,990.38
2019-02-03T06:36:58.657Z,990.45
2019-02-03T06:37:58.743Z,990.37
2019-02-03T06:38:58.728Z,990.43
2019-02-03T06:39:58.770Z,990.42
2019-02-03T06:40:58.798Z,990.46
2019-02-03T06:41:58.834Z,990.45
2019-02-03T06:42:58.886Z,990.44
2019-02-03T06:43:58.906Z,990.47
2019-02-03T06:44:58.950Z,990.46
2019-02-03T06:45:58.978Z,990.46
2019-02-03T06:46:59.013Z,990.56
2019-02-03T06:47:59.451Z,990.49
2019-02-03T06:48:59.083Z,990.52
2019-02-03T06:49:59.119Z,990.51
2019-02-03T06:50:59.159Z,990.49
2019-02-03T06:51:59.192Z,990.51
2019-02-03T06:52:59.227Z,990.52
2019-02-03T06:53:59.261Z,990.55
2019-02-03T06:54:59.297Z,990.55
2019-02-03T06:55:59.333Z,990.59
2019-02-03T06:56:59.369Z,990.69
2019-02-03T06:57:59.404Z,990.72
2019-02-03T06:58:59.440Z,990.69
2019-02-03T06:59:59.475Z,990.73
2019-02-03T07:00:59.510Z,990.70
2019-02-03T07:01:59.551Z,990.79
2019-02-03T07:02:59.584Z,990.73
2019-02-03T07:03:59.624Z,990.71
2019-02-03T07:04:59.652Z,990.82
2019-02-03T07:05:59.695Z,990.79
2019-02-03T07:06:59.727Z,990.84
2019-02-03T07:07:59.758Z,990.81
2019-02-03T07:08:59.834Z,990.86
2019-02-03T07:10:00.770Z,990.83
2019-02-03T07:10:59.867Z,990.84
2019-02-03T07:11:59.901Z,990.88
2019-02-03T07:12:59.939Z,990.89
2019-02-03T07:13:59.973Z,990.87
2019-02-03T07:15:00.015Z,990.93
2019-02-03T07:16:00.045Z,990.88
2019-02-03T07:17:00.081Z,990.94
2019-02-03T07:18:00.116Z,990.97
2019-02-03T07:19:00.201Z,990.95
2019-02-03T07:20:00.312Z,990.95
2019-02-03T07:21:00.223Z,991.01
2019-02-03T07:22:00.274Z,991.01
2019-02-03T07:23:00.295Z,991.12
2019-02-03T07:24:00.328Z,991.06
2019-02-03T07:25:00.378Z,991.04
2019-02-03T07:26:00.408Z,991.14
2019-02-03T07:27:00.448Z,991.09
2019-02-03T07:28:00.473Z,991.17
2019-02-03T07:29:00.524Z,991.15
2019-02-03T07:30:00.544Z,991.17
2019-02-03T07:31:00.588Z,991.16
2019-02-03T07:32:00.617Z,991.19
2019-02-03T07:33:00.649Z,991.24
2019-02-03T07:34:00.687Z,991.25
2019-02-03T07:35:00.728Z,991.28
2019-02-03T07:36:00.757Z,991.25
2019-02-03T07:37:00.793Z,991.31
2019-02-03T07:38:00.848Z,991.32
2019-02-03T07:39:00.865Z,991.33
2019-02-03T07:40:11.668Z,991.35
2019-02-03T07:41:00.934Z,991.31
2019-02-03T07:42:00.978Z,991.37
2019-02-03T07:43:01.007Z,991.36
2019-02-03T07:44:01.049Z,991.41
2019-02-03T07:45:01.077Z,991.46
2019-02-03T07:46:01.114Z,991.40
2019-02-03T07:47:01.266Z,991.39
2019-02-03T07:48:01.206Z,991.45
2019-02-03T07:49:01.220Z,991.43
2019-02-03T07:50:01.257Z,991.47
2019-02-03T07:51:01.299Z,991.50
2019-02-03T07:52:01.331Z,991.50
2019-02-03T07:53:01.363Z,991.47
2019-02-03T07:54:08.562Z,991.54
2019-02-03T07:55:01.436Z,991.56
2019-02-03T07:56:01.471Z,991.57
2019-02-03T07:57:01.505Z,991.53
2019-02-03T07:58:01.542Z,991.58
2019-02-03T07:59:01.615Z,991.57
2019-02-03T08:00:01.620Z,991.67
2019-02-03T08:01:01.649Z,991.66
2019-02-03T08:02:01.691Z,991.61
2019-02-03T08:03:01.729Z,991.57
2019-02-03T08:04:01.758Z,991.61
2019-02-03T08:05:01.802Z,991.68
2019-02-03T08:06:01.828Z,991.57
2019-02-03T08:07:01.871Z,991.60
2019-02-03T08:08:01.905Z,991.59
2019-02-03T08:09:01.935Z,991.68
2019-02-03T08:10:01.979Z,991.65
2019-02-03T08:11:04.608Z,991.64
2019-02-03T08:12:02.044Z,991.69
2019-02-03T08:13:02.088Z,991.70
2019-02-03T08:14:02.114Z,991.68
2019-02-03T08:15:02.149Z,991.71
2019-02-03T08:16:02.193Z,991.72
2019-02-03T08:17:02.219Z,991.77
2019-02-03T08:18:02.262Z,991.73
2019-02-03T08:19:02.292Z,991.74
2019-02-03T08:20:02.338Z,991.79
2019-02-03T08:21:02.365Z,991.88
2019-02-03T08:22:02.411Z,991.81
2019-02-03T08:23:02.438Z,991.86
2019-02-03T08:24:02.476Z,991.86
2019-02-03T08:25:02.515Z,991.88
2019-02-03T08:26:02.545Z,991.89
2019-02-03T08:27:02.582Z,991.97
2019-02-03T08:28:02.615Z,991.99
2019-02-03T08:29:02.651Z,991.97
2019-02-03T08:30:02.687Z,992.04
2019-02-03T08:31:02.722Z,992.09
2019-02-03T08:32:02.758Z,992.03
2019-02-03T08:33:02.815Z,992.07
2019-02-03T08:34:02.833Z,992.04
2019-02-03T08:35:02.897Z,992.09
2019-02-03T08:36:02.909Z,992.11
2019-02-03T08:37:02.942Z,992.18
2019-02-03T08:38:02.984Z,992.19
2019-02-03T08:39:03.017Z,992.27
2019-02-03T08:40:03.046Z,992.24
2019-02-03T08:41:03.085Z,992.28
2019-02-03T08:42:03.121Z,992.32
2019-02-03T08:43:03.162Z,992.35
2019-02-03T08:44:03.191Z,992.38
2019-02-03T08:45:03.255Z,992.48
2019-02-03T08:46:03.265Z,992.46
2019-02-03T08:47:03.299Z,992.44
2019-02-03T08:48:03.339Z,992.43
2019-02-03T08:49:03.370Z,992.40
2019-02-03T08:50:03.403Z,992.48
2019-02-03T08:51:03.442Z,992.46
2019-02-03T08:52:03.492Z,992.47
2019-02-03T08:53:03.511Z,992.45
2019-02-03T08:54:03.548Z,992.52
2019-02-03T08:55:03.584Z,992.52
2019-02-03T08:56:03.627Z,992.52
2019-02-03T08:57:03.655Z,992.61
2019-02-03T08:58:03.692Z,992.71
2019-02-03T08:59:03.728Z,992.69
2019-02-03T09:00:03.776Z,992.69
2019-02-03T09:01:03.798Z,992.71
2019-02-03T09:02:03.840Z,992.72
2019-02-03T09:03:03.880Z,992.81
2019-02-03T09:04:03.910Z,992.76
2019-02-03T09:05:03.943Z,992.77
2019-02-03T09:06:03.987Z,992.74
2019-02-03T09:07:04.041Z,992.79
2019-02-03T09:08:04.052Z,992.88
2019-02-03T09:09:04.089Z,992.82
2019-02-03T09:10:04.127Z,992.88
2019-02-03T09:11:04.161Z,992.90
2019-02-03T09:12:04.198Z,992.93
2019-02-03T09:13:04.235Z,992.98
2019-02-03T09:14:04.277Z,993.08
2019-02-03T09:15:04.321Z,993.10
2019-02-03T09:16:04.365Z,993.12
2019-02-03T09:17:04.408Z,993.19
2019-02-03T09:18:04.415Z,993.20
2019-02-03T09:19:04.458Z,993.21
2019-02-03T09:20:04.487Z,993.19
2019-02-03T09:21:04.532Z,993.24
2019-02-03T09:22:04.564Z,993.21
2019-02-03T09:23:04.593Z,993.27
2019-02-03T09:24:04.649Z,993.26
2019-02-03T09:25:04.667Z,993.28
2019-02-03T09:26:04.711Z,993.30
2019-02-03T09:27:04.738Z,993.27
2019-02-03T09:28:04.773Z,993.28
2019-02-03T09:29:04.822Z,993.39
2019-02-03T09:30:04.852Z,993.30
2019-02-03T09:31:04.982Z,993.27
2019-02-03T09:32:04.929Z,993.28
2019-02-03T09:33:04.962Z,993.29
2019-02-03T09:34:04.993Z,993.32
2019-02-03T09:35:05.037Z,993.33
2019-02-03T09:36:05.065Z,993.38
2019-02-03T09:37:05.130Z,993.35
2019-02-03T09:38:05.139Z,993.37
2019-02-03T09:39:05.173Z,993.37
2019-02-03T09:40:05.224Z,993.42
2019-02-03T09:41:05.255Z,993.43
2019-02-03T09:42:05.282Z,993.43
2019-02-03T09:43:05.321Z,993.48
2019-02-03T09:44:05.365Z,993.49
2019-02-03T09:45:05.416Z,993.52
2019-02-03T09:46:05.432Z,993.50
2019-02-03T09:47:05.476Z,993.54
2019-02-03T09:48:05.517Z,993.50
2019-02-03T09:49:05.539Z,993.55
2019-02-03T09:50:05.584Z,993.51
2019-02-03T09:51:05.641Z,993.63
2019-02-03T09:52:05.653Z,993.54
2019-02-03T09:53:05.833Z,993.53
2019-02-03T09:54:05.737Z,993.51
2019-02-03T09:55:05.811Z,993.53
2019-02-03T09:56:06.582Z,993.56
2019-02-03T09:57:05.881Z,993.50
2019-02-03T09:58:05.871Z,993.53
2019-02-03T09:59:06.160Z,993.56
2019-02-03T10:00:05.942Z,993.59
2019-02-03T10:01:06.256Z,993.53
2019-02-03T10:02:06.171Z,993.50
2019-02-03T10:03:06.053Z,993.67
2019-02-03T10:04:06.103Z,993.60
2019-02-03T10:05:06.134Z,993.58
2019-02-03T10:06:06.167Z,993.59
2019-02-03T10:07:06.201Z,993.55
2019-02-03T10:08:06.233Z,993.57
2019-02-03T10:09:06.277Z,993.62
2019-02-03T10:10:06.311Z,993.60
2019-02-03T10:11:12.171Z,993.65
2019-02-03T10:12:06.382Z,993.61
2019-02-03T10:13:06.423Z,993.62
2019-02-03T10:14:06.454Z,993.60
2019-02-03T10:15:06.489Z,993.69
2019-02-03T10:16:06.526Z,993.65
2019-02-03T10:17:06.569Z,993.71
2019-02-03T10:18:06.599Z,993.73
2019-02-03T10:19:06.638Z,993.69
2019-02-03T10:20:06.677Z,993.68
2019-02-03T10:21:06.711Z,993.70
2019-02-03T10:22:06.748Z,993.62
2019-02-03T10:23:06.798Z,993.71
2019-02-03T10:24:06.831Z,993.72
2019-02-03T10:25:06.854Z,993.72
2019-02-03T10:26:06.898Z,993.67
2019-02-03T10:27:06.931Z,993.72
2019-02-03T10:28:06.969Z,993.76
2019-02-03T10:29:07.109Z,993.70
2019-02-03T10:30:07.037Z,993.77
2019-02-03T10:31:07.074Z,993.80
2019-02-03T10:32:07.117Z,993.78
2019-02-03T10:33:07.154Z,993.75
2019-02-03T10:34:07.185Z,993.75
2019-02-03T10:35:07.227Z,993.80
2019-02-03T10:36:07.260Z,993.73
2019-02-03T10:37:07.294Z,993.72
2019-02-03T10:38:07.432Z,993.72
2019-02-03T10:39:07.374Z,993.72
2019-02-03T10:40:07.408Z,993.73
2019-02-03T10:41:08.011Z,993.76
2019-02-03T10:42:07.478Z,993.74
2019-02-03T10:43:07.929Z,993.73
2019-02-03T10:44:07.556Z,993.74
2019-02-03T10:45:07.784Z,993.72
2019-02-03T10:46:07.626Z,993.68
2019-02-03T10:47:07.807Z,993.70
2019-02-03T10:48:07.737Z,993.70
2019-02-03T10:49:07.737Z,993.67
2019-02-03T10:50:07.775Z,993.67
2019-02-03T10:51:07.809Z,993.77
2019-02-03T10:52:07.853Z,993.68
2019-02-03T10:53:07.889Z,993.71
2019-02-03T10:54:07.918Z,993.77
2019-02-03T10:55:07.972Z,993.67
2019-02-03T10:56:07.994Z,993.74
2019-02-03T10:57:08.033Z,993.72
2019-02-03T10:58:08.068Z,993.75
2019-02-03T10:59:08.105Z,993.71
2019-02-03T11:00:18.171Z,993.70
2019-02-03T11:01:08.174Z,993.73
2019-02-03T11:02:08.220Z,993.80
2019-02-03T11:03:08.269Z,993.72
2019-02-03T11:04:08.285Z,993.74
2019-02-03T11:05:08.322Z,993.77
2019-02-03T11:06:08.360Z,993.74
2019-02-03T11:08:08.433Z,993.77
2019-02-03T11:09:08.469Z,993.73
2019-02-03T11:10:08.511Z,993.80
2019-02-03T11:11:08.545Z,993.80
2019-02-03T11:12:08.580Z,993.76
2019-02-03T11:13:09.182Z,993.79
2019-02-03T11:14:08.653Z,993.80
2019-02-03T11:15:08.690Z,993.83
2019-02-03T11:16:08.724Z,993.90
2019-02-03T11:17:08.769Z,993.81
2019-02-03T11:18:08.808Z,993.89
2019-02-03T11:19:08.837Z,993.88
2019-02-03T11:20:08.875Z,993.87
2019-02-03T11:21:08.920Z,993.88
2019-02-03T11:22:08.944Z,993.83
2019-02-03T11:23:08.983Z,993.90
2019-02-03T11:24:09.024Z,994.00
2019-02-03T11:25:09.065Z,994.05
2019-02-03T11:26:09.116Z,994.02
2019-02-03T11:27:09.141Z,994.00
2019-02-03T11:28:09.223Z,994.03
2019-02-03T11:29:09.241Z,994.00
2019-02-03T11:30:09.262Z,993.97
2019-02-03T11:31:09.289Z,994.02
2019-02-03T11:32:09.319Z,994.04
2019-02-03T11:33:09.770Z,994.14
2019-02-03T11:34:09.398Z,994.06
2019-02-03T11:35:09.427Z,994.17
2019-02-03T11:36:09.461Z,994.19
2019-02-03T11:37:09.507Z,994.12
2019-02-03T11:38:09.542Z,994.14
2019-02-03T11:39:09.678Z,994.18
2019-02-03T11:40:09.618Z,994.29
2019-02-03T11:41:09.643Z,994.20
2019-02-03T11:42:09.779Z,994.23
2019-02-03T11:43:09.719Z,994.31
2019-02-03T11:44:09.760Z,994.24
2019-02-03T11:45:09.790Z,994.28
2019-02-03T11:46:09.841Z,994.30
2019-02-03T11:47:09.867Z,994.27
2019-02-03T11:48:09.915Z,994.26
2019-02-03T11:49:10.048Z,994.21
2019-02-03T11:50:09.978Z,994.25
2019-02-03T11:51:10.029Z,994.32
2019-02-03T11:52:10.047Z,994.28
2019-02-03T11:53:10.093Z,994.25
2019-02-03T11:54:10.172Z,994.39
2019-02-03T11:55:10.166Z,994.37
2019-02-03T11:56:10.639Z,994.29
2019-02-03T11:57:10.240Z,994.35
2019-02-03T11:58:10.712Z,994.34
2019-02-03T11:59:10.802Z,994.39
2019-02-03T12:00:10.343Z,994.39
2019-02-03T12:01:10.379Z,994.38
2019-02-03T12:02:10.416Z,994.36
2019-02-03T12:03:11.048Z,994.40
2019-02-03T12:04:10.597Z,994.41
2019-02-03T12:05:10.535Z,994.40
2019-02-03T12:06:10.585Z,994.43
2019-02-03T12:07:10.624Z,994.41
2019-02-03T12:08:10.696Z,994.44
2019-02-03T12:09:10.677Z,994.48
2019-02-03T12:10:10.719Z,994.43
2019-02-03T12:11:10.747Z,994.45
2019-02-03T12:12:10.891Z,994.47
2019-02-03T12:13:10.834Z,994.46
2019-02-03T12:14:10.866Z,994.47
2019-02-03T12:15:10.899Z,994.54
2019-02-03T12:16:10.933Z,994.54
2019-02-03T12:17:10.970Z,994.51
2019-02-03T12:18:11.007Z,994.59
2019-02-03T12:19:11.042Z,994.52
2019-02-03T12:20:11.079Z,994.52
2019-02-03T12:21:11.119Z,994.52
2019-02-03T12:22:11.152Z,994.51
2019-02-03T12:23:11.207Z,994.54
2019-02-03T12:24:11.231Z,994.52
2019-02-03T12:25:11.283Z,994.54
2019-02-03T12:26:11.301Z,994.58
2019-02-03T12:27:11.346Z,994.56
2019-02-03T12:28:11.376Z,994.57
2019-02-03T12:29:11.426Z,994.62
2019-02-03T12:30:11.448Z,994.62